createdAt,value
2023-01-08T00:00:00.332Z,3.10
2023-01-08T00:02:27.174Z,3.10
2023-01-08T00:04:54.005Z,3.10
2023-01-08T00:07:20.864Z,3.10
2023-01-08T00:09:50.645Z,3.10
2023-01-08T00:12:17.617Z,3.10
2023-01-08T00:14:44.450Z,3.10
2023-01-08T00:17:11.273Z,3.00
2023-01-08T00:19:38.123Z,3.00
2023-01-08T00:22:04.927Z,3.00
2023-01-08T00:24:31.717Z,3.00
2023-01-08T00:26:58.528Z,2.90
2023-01-08T00:29:25.325Z,2.90
2023-01-08T00:31:52.533Z,2.90
2023-01-08T00:34:19.351Z,2.80
2023-01-08T00:36:46.191Z,2.80
2023-01-08T00:39:13.027Z,2.80
2023-01-08T00:41:44.255Z,2.80
2023-01-08T00:44:11.230Z,2.80
2023-01-08T00:46:38.049Z,2.80
2023-01-08T00:49:04.959Z,2.70
2023-01-08T00:51:31.783Z,2.70
2023-01-08T00:53:59.382Z,2.70
2023-01-08T00:56:26.237Z,2.70
2023-01-08T00:58:53.059Z,2.70
2023-01-08T01:01:19.978Z,2.70
2023-01-08T01:03:46.941Z,2.70
2023-01-08T01:06:14.652Z,2.70
2023-01-08T01:08:42.194Z,2.70
2023-01-08T01:11:11.186Z,2.70
2023-01-08T01:13:38.034Z,2.70
2023-01-08T01:16:05.248Z,2.60
2023-01-08T01:18:32.274Z,2.60
2023-01-08T01:20:59.141Z,2.60
2023-01-08T01:23:26.145Z,2.50
2023-01-08T01:25:54.566Z,2.60
2023-01-08T01:28:21.455Z,2.50
2023-01-08T01:30:54.539Z,2.50
2023-01-08T01:33:21.517Z,2.50
2023-01-08T01:35:48.383Z,2.50
2023-01-08T01:38:15.251Z,2.50
2023-01-08T01:40:43.427Z,2.50
2023-01-08T01:43:14.705Z,2.50
2023-01-08T01:45:42.628Z,2.50
2023-01-08T01:48:15.804Z,2.50
2023-01-08T01:50:44.266Z,2.60
2023-01-08T01:53:22.094Z,2.60
2023-01-08T01:55:49.582Z,2.60
2023-01-08T01:58:27.304Z,2.60
2023-01-08T02:00:56.386Z,2.60
2023-01-08T02:03:25.687Z,2.60
2023-01-08T02:06:18.611Z,2.60
2023-01-08T02:08:56.255Z,2.60
2023-01-08T02:11:41.209Z,2.60
2023-01-08T02:14:35.830Z,2.60
2023-01-08T02:17:09.821Z,2.50
2023-01-08T02:19:53.225Z,2.50
2023-01-08T02:22:28.743Z,2.50
2023-01-08T02:25:28.897Z,2.50
2023-01-08T02:27:57.205Z,2.40
2023-01-08T02:30:25.499Z,2.40
2023-01-08T02:32:52.352Z,2.40
2023-01-08T02:35:19.213Z,2.40
2023-01-08T02:37:46.118Z,2.40
2023-01-08T02:40:21.493Z,2.40
2023-01-08T02:43:00.150Z,2.30
2023-01-08T02:45:47.252Z,2.40
2023-01-08T02:48:27.868Z,2.40
2023-01-08T02:51:14.219Z,2.40
2023-01-08T02:53:45.640Z,2.50
2023-01-08T02:56:16.810Z,2.50
2023-01-08T02:58:45.077Z,2.50
2023-01-08T03:01:14.689Z,2.50
2023-01-08T03:03:46.728Z,2.50
2023-01-08T03:06:18.289Z,2.50
2023-01-08T03:08:48.260Z,2.50
2023-01-08T03:11:18.181Z,2.50
2023-01-08T03:14:19.120Z,2.50
2023-01-08T03:17:13.537Z,2.50
2023-01-08T03:19:45.270Z,2.50
2023-01-08T03:22:15.530Z,2.60
2023-01-08T03:24:44.890Z,2.50
2023-01-08T03:27:17.406Z,2.60
2023-01-08T03:29:46.684Z,2.60
2023-01-08T03:32:16.426Z,2.50
2023-01-08T03:34:47.231Z,2.50
2023-01-08T03:37:16.784Z,2.50
2023-01-08T03:39:54.251Z,2.50
2023-01-08T03:42:22.834Z,2.50
2023-01-08T03:44:49.705Z,2.50
2023-01-08T03:47:16.907Z,2.50
2023-01-08T03:49:44.694Z,2.50
2023-01-08T03:52:22.093Z,2.50
2023-01-08T03:54:48.927Z,2.60
2023-01-08T03:57:15.751Z,2.60
2023-01-08T03:59:42.602Z,2.50
2023-01-08T04:02:09.606Z,2.50
2023-01-08T04:04:36.695Z,2.50
2023-01-08T04:07:03.555Z,2.50
2023-01-08T04:09:30.360Z,2.50
2023-01-08T04:11:57.255Z,2.50
2023-01-08T04:14:24.070Z,2.50
2023-01-08T04:16:50.923Z,2.50
2023-01-08T04:19:17.731Z,2.50
2023-01-08T04:21:44.665Z,2.40
2023-01-08T04:24:12.915Z,2.40
2023-01-08T04:26:39.752Z,2.40
2023-01-08T04:29:06.571Z,2.40
2023-01-08T04:31:33.466Z,2.40
2023-01-08T04:34:00.290Z,2.40
2023-01-08T04:36:27.105Z,2.40
2023-01-08T04:38:53.994Z,2.40
2023-01-08T04:41:20.836Z,2.30
2023-01-08T04:43:47.700Z,2.30
2023-01-08T04:46:14.585Z,2.30
2023-01-08T04:48:41.467Z,2.20
2023-01-08T04:51:08.411Z,2.20
2023-01-08T04:53:37.643Z,2.20
2023-01-08T04:56:07.018Z,2.20
2023-01-08T04:58:34.792Z,2.20
2023-01-08T05:01:02.047Z,2.20
2023-01-08T05:03:28.944Z,2.20
2023-01-08T05:05:55.768Z,2.20
2023-01-08T05:08:22.564Z,2.20
2023-01-08T05:10:49.397Z,2.20
2023-01-08T05:13:16.243Z,2.20
2023-01-08T05:15:43.133Z,2.20
2023-01-08T05:18:10.308Z,2.30
2023-01-08T05:20:37.196Z,2.30
2023-01-08T05:23:04.300Z,2.30
2023-01-08T05:25:31.176Z,2.30
2023-01-08T05:27:58.013Z,2.40
2023-01-08T05:30:24.909Z,2.30
2023-01-08T05:32:51.762Z,2.40
2023-01-08T05:35:18.835Z,2.40
2023-01-08T05:37:45.662Z,2.40
2023-01-08T05:40:12.709Z,2.40
2023-01-08T05:42:39.855Z,2.40
2023-01-08T05:45:07.927Z,2.50
2023-01-08T05:47:35.640Z,2.50
2023-01-08T05:50:02.510Z,2.60
2023-01-08T05:52:30.062Z,2.60
2023-01-08T05:54:56.984Z,2.70
2023-01-08T05:57:23.808Z,2.70
2023-01-08T05:59:50.675Z,2.80
2023-01-08T06:02:17.711Z,2.70
2023-01-08T06:04:44.585Z,2.80
2023-01-08T06:07:11.448Z,2.90
2023-01-08T06:09:38.279Z,2.80
2023-01-08T06:12:05.353Z,2.90
2023-01-08T06:14:32.277Z,2.90
2023-01-08T06:16:59.135Z,2.90
2023-01-08T06:19:26.061Z,2.90
2023-01-08T06:21:52.959Z,2.90
2023-01-08T06:24:19.791Z,2.90
2023-01-08T06:26:46.689Z,2.90
2023-01-08T06:29:13.550Z,2.90
2023-01-08T06:31:40.503Z,2.90
2023-01-08T06:34:07.420Z,2.90
2023-01-08T06:36:34.293Z,2.90
2023-01-08T06:39:01.171Z,2.90
2023-01-08T06:41:28.223Z,2.80
2023-01-08T06:43:55.020Z,2.80
2023-01-08T06:46:21.866Z,2.80
2023-01-08T06:48:48.805Z,2.80
2023-01-08T06:51:15.644Z,2.80
2023-01-08T06:53:42.598Z,2.80
2023-01-08T06:56:11.051Z,2.80
2023-01-08T06:58:38.952Z,2.80
2023-01-08T07:01:05.826Z,2.80
2023-01-08T07:03:32.879Z,2.90
2023-01-08T07:06:02.996Z,2.90
2023-01-08T07:08:29.816Z,2.90
2023-01-08T07:10:56.679Z,2.90
2023-01-08T07:13:24.462Z,2.90
2023-01-08T07:15:51.379Z,2.90
2023-01-08T07:18:18.334Z,2.90
2023-01-08T07:20:45.190Z,2.90
2023-01-08T07:23:12.244Z,2.90
2023-01-08T07:25:39.386Z,2.90
2023-01-08T07:28:06.985Z,2.90
2023-01-08T07:30:33.992Z,2.90
2023-01-08T07:33:01.909Z,3.00
2023-01-08T07:35:29.111Z,3.00
2023-01-08T07:37:56.725Z,3.00
2023-01-08T07:40:24.023Z,3.00
2023-01-08T07:43:05.066Z,3.00
2023-01-08T07:45:32.695Z,3.00
2023-01-08T07:48:00.949Z,3.10
2023-01-08T07:50:28.159Z,3.10
2023-01-08T07:53:01.731Z,3.20
2023-01-08T07:55:30.325Z,3.30
2023-01-08T07:57:57.169Z,3.30
2023-01-08T08:00:24.068Z,3.40
2023-01-08T08:02:51.141Z,3.40
2023-01-08T08:05:18.328Z,3.50
2023-01-08T08:07:45.235Z,3.60
2023-01-08T08:10:12.258Z,3.60
2023-01-08T08:12:39.083Z,3.70
2023-01-08T08:15:06.610Z,3.80
2023-01-08T08:17:33.528Z,4.00
2023-01-08T08:20:00.376Z,4.40
2023-01-08T08:22:27.485Z,5.10
2023-01-08T08:24:54.396Z,5.30
2023-01-08T08:27:21.322Z,5.40
2023-01-08T08:29:48.161Z,5.90
2023-01-08T08:32:15.009Z,6.50
2023-01-08T08:34:42.029Z,6.90
2023-01-08T08:37:09.731Z,7.60
2023-01-08T08:39:37.174Z,7.70
2023-01-08T08:42:04.193Z,7.60
2023-01-08T08:44:31.083Z,7.70
2023-01-08T08:46:58.080Z,8.50
2023-01-08T08:49:25.044Z,9.30
2023-01-08T08:51:53.196Z,10.20
2023-01-08T08:54:20.271Z,11.10
2023-01-08T08:56:48.608Z,11.50
2023-01-08T08:59:15.844Z,12.00
2023-01-08T09:01:43.180Z,12.30
2023-01-08T09:04:10.280Z,12.60
2023-01-08T09:06:37.332Z,12.90
2023-01-08T09:09:04.687Z,13.20
2023-01-08T09:11:32.123Z,13.20
2023-01-08T09:13:58.979Z,13.50
2023-01-08T09:16:25.919Z,13.60
2023-01-08T09:18:52.974Z,13.80
2023-01-08T09:21:19.856Z,14.00
2023-01-08T09:23:48.779Z,14.20
2023-01-08T09:26:16.309Z,14.20
2023-01-08T09:28:43.195Z,14.20
2023-01-08T09:31:10.302Z,14.20
2023-01-08T09:33:37.297Z,14.10
2023-01-08T09:36:05.361Z,14.00
2023-01-08T09:38:32.229Z,14.10
2023-01-08T09:41:03.793Z,14.00
2023-01-08T09:43:33.486Z,14.00
2023-01-08T09:46:03.855Z,14.00
2023-01-08T09:48:41.388Z,13.90
2023-01-08T09:51:17.031Z,13.70
2023-01-08T09:53:45.185Z,13.40
2023-01-08T09:56:17.912Z,13.10
2023-01-08T09:58:56.827Z,13.00
2023-01-08T10:01:30.422Z,12.70
2023-01-08T10:04:06.868Z,12.60
2023-01-08T10:06:34.084Z,12.70
2023-01-08T10:09:01.120Z,12.70
2023-01-08T10:11:38.738Z,13.00
2023-01-08T10:14:17.303Z,13.20
2023-01-08T10:16:47.615Z,13.60
2023-01-08T10:19:14.766Z,13.90
2023-01-08T10:21:42.000Z,14.00
2023-01-08T10:24:09.035Z,14.20
2023-01-08T10:26:38.117Z,14.30
2023-01-08T10:29:17.173Z,14.30
2023-01-08T10:31:54.398Z,14.20
2023-01-08T10:34:43.163Z,14.10
2023-01-08T10:37:29.685Z,14.10
2023-01-08T10:40:20.400Z,14.10
2023-01-08T10:42:47.574Z,14.30
2023-01-08T10:45:21.661Z,14.50
2023-01-08T10:47:51.637Z,14.60
2023-01-08T10:50:25.702Z,14.70
2023-01-08T10:52:58.532Z,14.90
2023-01-08T10:55:37.644Z,15.10
2023-01-08T10:58:10.389Z,15.40
2023-01-08T11:00:38.347Z,15.30
2023-01-08T11:03:21.113Z,15.30
2023-01-08T11:05:48.692Z,15.30
2023-01-08T11:08:18.577Z,15.00
2023-01-08T11:10:58.613Z,14.80
2023-01-08T11:13:26.798Z,14.50
2023-01-08T11:16:08.424Z,14.20
2023-01-08T11:18:48.318Z,13.90
2023-01-08T11:21:27.134Z,13.80
2023-01-08T11:24:27.891Z,13.80
2023-01-08T11:27:14.720Z,13.80
2023-01-08T11:29:46.631Z,13.80
2023-01-08T11:32:19.401Z,13.80
2023-01-08T11:34:55.735Z,13.40
2023-01-08T11:37:22.750Z,13.30
2023-01-08T11:39:50.011Z,13.10
2023-01-08T11:42:37.415Z,13.10
2023-01-08T11:45:17.050Z,13.10
2023-01-08T11:48:20.577Z,13.00
2023-01-08T11:51:14.566Z,12.80
2023-01-08T11:53:51.170Z,12.80
2023-01-08T11:56:51.308Z,12.70
2023-01-08T11:59:56.211Z,12.70
2023-01-08T12:02:54.412Z,12.70
2023-01-08T12:05:58.712Z,12.50
2023-01-08T12:08:49.689Z,12.50
2023-01-08T12:11:36.965Z,12.40
2023-01-08T12:14:28.975Z,12.40
2023-01-08T12:17:24.737Z,12.10
2023-01-08T12:19:51.737Z,11.90
2023-01-08T12:22:38.883Z,11.70
2023-01-08T12:25:43.759Z,11.60
2023-01-08T12:28:16.245Z,11.50
2023-01-08T12:30:59.898Z,11.40
2023-01-08T12:33:44.690Z,11.30
2023-01-08T12:36:18.607Z,11.20
2023-01-08T12:38:53.015Z,11.10
2023-01-08T12:41:20.559Z,11.00
2023-01-08T12:44:02.178Z,10.90
2023-01-08T12:46:34.275Z,10.80
2023-01-08T12:49:01.966Z,10.70
2023-01-08T12:51:34.951Z,10.60
2023-01-08T12:54:14.523Z,10.60
2023-01-08T12:56:59.051Z,10.60
2023-01-08T12:59:59.309Z,10.50
2023-01-08T13:02:47.958Z,10.40
2023-01-08T13:05:37.041Z,10.20
2023-01-08T13:08:37.083Z,10.10
2023-01-08T13:11:04.771Z,10.00
2023-01-08T13:13:45.326Z,9.90
2023-01-08T13:16:12.277Z,9.80
2023-01-08T13:18:39.283Z,9.70
2023-01-08T13:21:09.678Z,9.60
2023-01-08T13:23:36.721Z,9.50
2023-01-08T13:26:06.272Z,9.30
2023-01-08T13:28:38.870Z,9.20
2023-01-08T13:31:20.714Z,9.10
2023-01-08T13:33:49.492Z,9.00
2023-01-08T13:36:21.734Z,8.90
2023-01-08T13:39:06.706Z,8.80
2023-01-08T13:41:41.742Z,8.70
2023-01-08T13:44:41.149Z,8.70
2023-01-08T13:47:19.250Z,8.60
2023-01-08T13:49:53.355Z,8.60
2023-01-08T13:52:46.248Z,8.50
2023-01-08T13:55:33.948Z,8.50
2023-01-08T13:58:17.528Z,8.40
2023-01-08T14:00:44.332Z,8.40
2023-01-08T14:03:29.929Z,8.40
2023-01-08T14:06:26.986Z,8.40
2023-01-08T14:09:04.263Z,8.30
2023-01-08T14:11:46.641Z,8.20
2023-01-08T14:14:17.259Z,8.20
2023-01-08T14:16:46.164Z,8.10
2023-01-08T14:19:24.580Z,8.10
2023-01-08T14:21:54.718Z,8.00
2023-01-08T14:24:23.562Z,8.00
2023-01-08T14:26:58.826Z,7.90
2023-01-08T14:29:30.881Z,7.90
2023-01-08T14:32:00.687Z,7.90
2023-01-08T14:34:31.272Z,7.80
2023-01-08T14:36:58.332Z,7.80
2023-01-08T14:39:36.647Z,7.80
2023-01-08T14:42:39.009Z,7.70
2023-01-08T14:45:07.964Z,7.70
2023-01-08T14:47:39.261Z,7.60
2023-01-08T14:50:07.465Z,7.60
2023-01-08T14:52:39.359Z,7.50
2023-01-08T14:55:06.583Z,7.50
2023-01-08T14:57:33.540Z,7.40
2023-01-08T15:00:01.955Z,7.40
2023-01-08T15:02:34.944Z,7.30
2023-01-08T15:05:16.668Z,7.30
2023-01-08T15:07:59.119Z,7.30
2023-01-08T15:10:42.313Z,7.20
2023-01-08T15:13:36.076Z,7.10
2023-01-08T15:16:16.091Z,7.10
2023-01-08T15:18:46.228Z,7.10
2023-01-08T15:21:18.786Z,7.10
2023-01-08T15:23:55.022Z,7.10
2023-01-08T15:26:23.635Z,7.00
2023-01-08T15:28:58.486Z,7.00
2023-01-08T15:31:30.815Z,6.90
2023-01-08T15:33:58.991Z,6.90
2023-01-08T15:36:26.410Z,6.90
2023-01-08T15:38:53.293Z,6.80
2023-01-08T15:41:41.423Z,6.80
2023-01-08T15:44:10.625Z,6.80
2023-01-08T15:46:37.515Z,6.60
2023-01-08T15:49:04.810Z,6.60
2023-01-08T15:51:34.161Z,6.60
2023-01-08T15:54:01.956Z,6.50
2023-01-08T15:56:28.822Z,6.50
2023-01-08T15:58:55.779Z,6.40
2023-01-08T16:01:22.735Z,6.40
2023-01-08T16:03:50.136Z,6.40
2023-01-08T16:06:17.126Z,6.40
2023-01-08T16:08:46.242Z,6.30
2023-01-08T16:11:13.866Z,6.30
2023-01-08T16:13:40.763Z,6.40
2023-01-08T16:16:10.221Z,6.40
2023-01-08T16:18:38.492Z,6.40
2023-01-08T16:21:07.058Z,6.30
2023-01-08T16:23:38.250Z,6.30
2023-01-08T16:26:06.802Z,6.30
2023-01-08T16:28:33.676Z,6.30
2023-01-08T16:31:00.566Z,6.20
2023-01-08T16:33:27.911Z,6.20
2023-01-08T16:36:03.338Z,6.10
2023-01-08T16:38:31.692Z,6.10
2023-01-08T16:41:00.229Z,6.10
2023-01-08T16:43:29.736Z,6.10
2023-01-08T16:45:57.046Z,6.10
2023-01-08T16:48:24.360Z,6.10
2023-01-08T16:50:51.664Z,6.10
2023-01-08T16:53:19.046Z,6.10
2023-01-08T16:55:45.886Z,6.10
2023-01-08T16:58:12.788Z,6.00
2023-01-08T17:00:40.520Z,6.00
2023-01-08T17:03:07.437Z,6.00
2023-01-08T17:05:36.926Z,6.00
2023-01-08T17:08:03.995Z,6.00
2023-01-08T17:10:30.974Z,6.00
2023-01-08T17:12:57.878Z,6.00
2023-01-08T17:15:24.805Z,6.00
2023-01-08T17:17:51.869Z,6.00
2023-01-08T17:20:20.097Z,6.00
2023-01-08T17:22:47.184Z,6.00
2023-01-08T17:25:14.262Z,5.90
2023-01-08T17:27:42.188Z,5.90
2023-01-08T17:30:14.101Z,6.00
2023-01-08T17:32:41.429Z,5.90
2023-01-08T17:35:08.787Z,6.00
2023-01-08T17:37:36.082Z,6.00
2023-01-08T17:40:03.645Z,5.90
2023-01-08T17:42:31.214Z,5.90
2023-01-08T17:45:02.967Z,5.90
2023-01-08T17:47:31.289Z,5.90
2023-01-08T17:49:58.187Z,5.90
2023-01-08T17:52:25.885Z,5.90
2023-01-08T17:54:53.382Z,5.90
2023-01-08T17:57:21.212Z,5.80
2023-01-08T17:59:48.843Z,5.80
2023-01-08T18:02:17.307Z,5.80
2023-01-08T18:04:45.685Z,5.80
2023-01-08T18:07:13.290Z,5.70
2023-01-08T18:09:40.465Z,5.70
2023-01-08T18:12:07.942Z,5.70
2023-01-08T18:14:39.127Z,5.70
2023-01-08T18:17:06.548Z,5.70
2023-01-08T18:19:33.456Z,5.60
2023-01-08T18:22:00.948Z,5.60
2023-01-08T18:24:27.916Z,5.60
2023-01-08T18:26:54.739Z,5.60
2023-01-08T18:29:22.020Z,5.60
2023-01-08T18:31:49.109Z,5.60
2023-01-08T18:34:16.281Z,5.60
2023-01-08T18:36:43.266Z,5.70
2023-01-08T18:39:14.618Z,5.70
2023-01-08T18:42:00.119Z,5.70
2023-01-08T18:44:27.033Z,5.70
2023-01-08T18:46:54.229Z,5.70
2023-01-08T18:49:21.515Z,5.70
2023-01-08T18:51:48.348Z,5.70
2023-01-08T18:54:15.768Z,5.70
2023-01-08T18:56:42.799Z,5.70
2023-01-08T18:59:11.444Z,5.70
2023-01-08T19:01:39.610Z,5.70
2023-01-08T19:04:06.951Z,5.70
2023-01-08T19:06:33.889Z,5.70
2023-01-08T19:09:01.208Z,5.70
2023-01-08T19:11:28.150Z,5.70
2023-01-08T19:13:56.952Z,5.80
2023-01-08T19:16:24.475Z,5.80
2023-01-08T19:18:51.449Z,5.80
2023-01-08T19:21:19.481Z,5.80
2023-01-08T19:23:47.722Z,5.90
2023-01-08T19:26:15.605Z,5.90
2023-01-08T19:28:43.310Z,5.90
2023-01-08T19:31:13.824Z,5.90
2023-01-08T19:33:41.212Z,5.90
2023-01-08T19:36:12.650Z,6.00
2023-01-08T19:38:40.656Z,6.00
2023-01-08T19:41:30.608Z,6.00
2023-01-08T19:43:58.449Z,6.00
2023-01-08T19:46:26.317Z,6.00
2023-01-08T19:48:56.025Z,6.00
2023-01-08T19:51:23.127Z,6.00
2023-01-08T19:53:50.067Z,6.00
2023-01-08T19:56:17.099Z,6.00
2023-01-08T19:58:44.106Z,5.90
2023-01-08T20:01:12.558Z,5.90
2023-01-08T20:03:40.149Z,5.90
2023-01-08T20:06:09.547Z,5.80
2023-01-08T20:08:36.800Z,5.80
2023-01-08T20:11:09.976Z,5.80
2023-01-08T20:13:37.717Z,5.70
2023-01-08T20:16:06.515Z,5.70
2023-01-08T20:18:36.263Z,5.70
2023-01-08T20:21:08.770Z,5.70
2023-01-08T20:23:36.608Z,5.70
2023-01-08T20:26:24.016Z,5.70
2023-01-08T20:28:50.850Z,5.70
2023-01-08T20:31:20.003Z,5.70
2023-01-08T20:33:47.540Z,5.70
2023-01-08T20:36:20.964Z,5.70
2023-01-08T20:38:52.407Z,5.70
2023-01-08T20:41:19.562Z,5.70
2023-01-08T20:43:46.831Z,5.70
2023-01-08T20:46:14.893Z,5.60
2023-01-08T20:48:47.798Z,5.70
2023-01-08T20:51:15.166Z,5.70
2023-01-08T20:53:42.277Z,5.60
2023-01-08T20:56:12.669Z,5.60
2023-01-08T20:58:42.653Z,5.60
2023-01-08T21:01:10.870Z,5.50
2023-01-08T21:03:38.736Z,5.50
2023-01-08T21:06:11.632Z,5.40
2023-01-08T21:08:40.684Z,5.40
2023-01-08T21:11:09.202Z,5.30
2023-01-08T21:13:37.043Z,5.20
2023-01-08T21:16:07.938Z,5.20
2023-01-08T21:18:34.952Z,5.20
2023-01-08T21:21:03.911Z,5.10
2023-01-08T21:23:32.626Z,5.10
2023-01-08T21:26:02.192Z,5.00
2023-01-08T21:28:29.375Z,5.00
2023-01-08T21:31:03.541Z,4.90
2023-01-08T21:33:30.528Z,4.90
2023-01-08T21:35:57.433Z,4.90
2023-01-08T21:38:24.366Z,4.80
2023-01-08T21:41:02.355Z,4.80
2023-01-08T21:43:47.665Z,4.80
2023-01-08T21:46:16.313Z,4.80
2023-01-08T21:48:49.908Z,4.80
2023-01-08T21:51:35.675Z,4.80
2023-01-08T21:54:03.067Z,4.80
2023-01-08T21:56:30.825Z,4.70
2023-01-08T21:58:57.695Z,4.70
2023-01-08T22:01:24.683Z,4.70
2023-01-08T22:03:51.900Z,4.60
2023-01-08T22:06:18.783Z,4.60
2023-01-08T22:08:51.327Z,4.50
2023-01-08T22:11:18.476Z,4.50
2023-01-08T22:13:45.620Z,4.40
2023-01-08T22:16:13.245Z,4.30
2023-01-08T22:18:40.474Z,4.30
2023-01-08T22:21:12.733Z,4.20
2023-01-08T22:23:39.657Z,4.20
2023-01-08T22:26:08.556Z,4.20
2023-01-08T22:28:39.302Z,4.10
2023-01-08T22:31:08.187Z,4.10
2023-01-08T22:33:35.564Z,4.00
2023-01-08T22:36:03.790Z,4.00
2023-01-08T22:38:30.800Z,3.90
2023-01-08T22:40:57.640Z,3.90
2023-01-08T22:43:24.490Z,3.90
2023-01-08T22:45:55.167Z,3.90
2023-01-08T22:48:22.314Z,3.80
2023-01-08T22:50:49.352Z,3.80
2023-01-08T22:53:16.434Z,3.70
2023-01-08T22:55:46.390Z,3.70
2023-01-08T22:58:17.551Z,3.70
2023-01-08T23:00:44.989Z,3.70
2023-01-08T23:03:13.269Z,3.60
2023-01-08T23:05:40.579Z,3.60
2023-01-08T23:08:08.893Z,3.60
2023-01-08T23:10:35.933Z,3.50
2023-01-08T23:13:02.804Z,3.40
2023-01-08T23:15:30.615Z,3.40
2023-01-08T23:17:57.489Z,3.40
2023-01-08T23:20:25.119Z,3.40
2023-01-08T23:22:51.998Z,3.30
2023-01-08T23:25:18.859Z,3.30
2023-01-08T23:27:45.835Z,3.30
2023-01-08T23:30:13.043Z,3.20
2023-01-08T23:32:40.410Z,3.20
2023-01-08T23:35:07.689Z,3.20
2023-01-08T23:37:34.845Z,3.10
2023-01-08T23:40:01.747Z,3.10
2023-01-08T23:42:29.777Z,3.10
2023-01-08T23:44:56.881Z,3.10
2023-01-08T23:47:23.957Z,3.10
2023-01-08T23:49:50.777Z,3.10
2023-01-08T23:52:17.560Z,3.10
2023-01-08T23:54:44.371Z,3.10
2023-01-08T23:57:11.169Z,3.10
2023-01-08T23:59:38.010Z,3.10
